createdAt,value
2019-02-07T00:00:26.067Z,27
2019-02-07T00:01:18.866Z,26.9
2019-02-07T00:02:07.029Z,26.8
2019-02-07T00:02:57.115Z,26.7
2019-02-07T00:03:46.960Z,26.6
2019-02-07T00:04:37.025Z,26.6
2019-02-07T00:05:27.340Z,26.6
2019-02-07T00:06:16.463Z,26.6
2019-02-07T00:07:08.992Z,26.7
2019-02-07T00:07:57.820Z,26.8
2019-02-07T00:08:47.040Z,26.8
2019-02-07T00:09:37.252Z,26.9
2019-02-07T00:10:26.905Z,26.9
2019-02-07T00:11:17.370Z,27
2019-02-07T00:12:07.541Z,27.1
2019-02-07T00:12:57.337Z,27.1
2019-02-07T00:13:47.247Z,27.2
2019-02-07T00:14:46.764Z,27.3
2019-02-07T00:15:27.101Z,27.4
2019-02-07T00:16:20.039Z,27.4
2019-02-07T00:17:07.789Z,27.5
2019-02-07T00:17:57.311Z,27.6
2019-02-07T00:18:47.416Z,27.6
2019-02-07T00:19:38.426Z,27.6
2019-02-07T00:20:27.281Z,27.6
2019-02-07T00:21:18.660Z,27.6
2019-02-07T00:22:07.594Z,27.6
2019-02-07T00:22:58.764Z,27.5
2019-02-07T00:23:48.528Z,27.4
2019-02-07T00:24:50.049Z,27.3
2019-02-07T00:25:30.531Z,27.1
2019-02-07T00:26:17.921Z,27
2019-02-07T00:27:08.863Z,26.9
2019-02-07T00:27:58.364Z,26.8
2019-02-07T00:28:49.316Z,26.7
2019-02-07T00:29:39.206Z,26.6
2019-02-07T00:30:28.738Z,26.5
2019-02-07T00:31:18.974Z,26.4
2019-02-07T00:32:09.116Z,26.4
2019-02-07T00:32:57.831Z,26.5
2019-02-07T00:33:49.253Z,26.6
2019-02-07T00:34:41.688Z,26.6
2019-02-07T00:35:28.800Z,26.7
2019-02-07T00:36:18.871Z,26.8
2019-02-07T00:37:09.190Z,26.8
2019-02-07T00:37:59.390Z,26.8
2019-02-07T00:38:48.724Z,26.9
2019-02-07T00:39:39.094Z,27
2019-02-07T00:40:28.868Z,27.1
2019-02-07T00:41:19.772Z,27.1
2019-02-07T00:42:09.053Z,27.3
2019-02-07T00:42:59.885Z,27.3
2019-02-07T00:43:51.619Z,27.4
2019-02-07T00:44:50.195Z,27.4
2019-02-07T00:45:29.477Z,27.6
2019-02-07T00:46:19.115Z,27.6
2019-02-07T00:47:11.929Z,27.6
2019-02-07T00:47:59.698Z,27.6
2019-02-07T00:48:50.374Z,27.5
2019-02-07T00:49:39.764Z,27.5
2019-02-07T00:50:33.079Z,27.4
2019-02-07T00:51:20.842Z,27.3
2019-02-07T00:52:10.351Z,27.2
2019-02-07T00:53:02.430Z,27.1
2019-02-07T00:53:50.727Z,26.9
2019-02-07T00:54:40.796Z,26.8
2019-02-07T00:55:29.937Z,26.8
2019-02-07T00:56:21.884Z,26.6
2019-02-07T00:57:11.294Z,26.5
2019-02-07T00:58:01.227Z,26.4
2019-02-07T00:58:50.240Z,26.3
2019-02-07T00:59:40.497Z,26.4
2019-02-07T01:00:30.969Z,26.4
2019-02-07T01:01:21.529Z,26.4
2019-02-07T01:02:12.996Z,26.5
2019-02-07T01:03:01.311Z,26.6
2019-02-07T01:03:50.770Z,26.6
2019-02-07T01:04:41.140Z,26.7
2019-02-07T01:05:33.046Z,26.8
2019-02-07T01:06:20.937Z,26.8
2019-02-07T01:07:10.857Z,26.9
2019-02-07T01:08:00.284Z,26.9
2019-02-07T01:08:51.514Z,27
2019-02-07T01:09:40.710Z,27.1
2019-02-07T01:10:30.955Z,27.1
2019-02-07T01:11:22.490Z,27
2019-02-07T01:12:11.408Z,27
2019-02-07T01:13:02.266Z,26.9
2019-02-07T01:13:51.103Z,26.9
2019-02-07T01:14:43.986Z,26.9
2019-02-07T01:15:32.194Z,26.9
2019-02-07T01:16:21.767Z,26.8
2019-02-07T01:17:11.635Z,26.8
2019-02-07T01:18:02.065Z,26.7
2019-02-07T01:18:52.148Z,26.6
2019-02-07T01:19:41.690Z,26.6
2019-02-07T01:20:33.677Z,26.6
2019-02-07T01:21:21.899Z,26.6
2019-02-07T01:22:12.066Z,26.7
2019-02-07T01:23:02.560Z,26.8
2019-02-07T01:23:52.217Z,26.8
2019-02-07T01:24:41.764Z,26.9
2019-02-07T01:25:31.660Z,27
2019-02-07T01:26:22.724Z,27.1
2019-02-07T01:27:12.472Z,27.2
2019-02-07T01:28:02.542Z,27.3
2019-02-07T01:28:52.039Z,27.3
2019-02-07T01:29:45.422Z,27.3
2019-02-07T01:30:33.012Z,27.3
2019-02-07T01:31:22.481Z,27.3
2019-02-07T01:32:12.566Z,27.3
2019-02-07T01:33:02.634Z,27.2
2019-02-07T01:33:52.964Z,27.1
2019-02-07T01:34:41.941Z,26.9
2019-02-07T01:35:33.484Z,26.8
2019-02-07T01:36:22.844Z,26.8
2019-02-07T01:37:12.356Z,26.6
2019-02-07T01:38:03.036Z,26.5
2019-02-07T01:38:55.935Z,26.4
2019-02-07T01:39:43.948Z,26.3
2019-02-07T01:40:32.599Z,26.2
2019-02-07T01:41:23.216Z,26.2
2019-02-07T01:42:12.746Z,26.2
2019-02-07T01:43:04.099Z,26.2
2019-02-07T01:43:52.916Z,26.3
2019-02-07T01:44:45.831Z,26.3
2019-02-07T01:45:33.761Z,26.4
2019-02-07T01:46:24.587Z,26.5
2019-02-07T01:47:13.670Z,26.5
2019-02-07T01:48:07.363Z,26.6
2019-02-07T01:48:52.929Z,26.7
2019-02-07T01:49:43.736Z,26.8
2019-02-07T01:50:33.526Z,26.8
2019-02-07T01:51:23.345Z,26.9
2019-02-07T01:52:14.880Z,27
2019-02-07T01:53:03.958Z,27.1
2019-02-07T01:53:56.188Z,27.1
2019-02-07T01:54:44.903Z,27.3
2019-02-07T01:55:34.711Z,27.3
2019-02-07T01:56:24.856Z,27.3
2019-02-07T01:57:17.188Z,27.3
2019-02-07T01:58:04.487Z,27.3
2019-02-07T01:58:54.730Z,27.3
2019-02-07T01:59:44.059Z,27.3
2019-02-07T02:00:35.357Z,27.1
2019-02-07T02:01:24.545Z,27
2019-02-07T02:02:15.147Z,26.9
2019-02-07T02:03:07.482Z,26.8
2019-02-07T02:03:55.859Z,26.6
2019-02-07T02:04:45.348Z,26.6
2019-02-07T02:05:35.987Z,26.4
2019-02-07T02:06:26.665Z,26.4
2019-02-07T02:07:15.272Z,26.3
2019-02-07T02:08:05.692Z,26.2
2019-02-07T02:08:56.027Z,26.2
2019-02-07T02:09:45.712Z,26.2
2019-02-07T02:10:34.904Z,26.2
2019-02-07T02:11:24.487Z,26.3
2019-02-07T02:12:17.947Z,26.3
2019-02-07T02:13:06.552Z,26.4
2019-02-07T02:13:55.416Z,26.4
2019-02-07T02:14:44.814Z,26.5
2019-02-07T02:15:36.914Z,26.6
2019-02-07T02:16:28.834Z,26.7
2019-02-07T02:17:15.674Z,26.7
2019-02-07T02:18:06.551Z,26.8
2019-02-07T02:18:55.779Z,26.9
2019-02-07T02:19:46.128Z,26.9
2019-02-07T02:20:36.166Z,27.1
2019-02-07T02:21:29.049Z,27.1
2019-02-07T02:22:16.808Z,27.2
2019-02-07T02:23:06.398Z,27.3
2019-02-07T02:23:56.448Z,27.3
2019-02-07T02:24:51.874Z,27.3
2019-02-07T02:25:37.449Z,27.3
2019-02-07T02:26:26.893Z,27.3
2019-02-07T02:27:17.491Z,27.1
2019-02-07T02:28:07.291Z,27
2019-02-07T02:28:57.600Z,26.9
2019-02-07T02:29:47.635Z,26.7
2019-02-07T02:30:40.146Z,26.6
2019-02-07T02:31:26.693Z,26.6
2019-02-07T02:32:17.073Z,26.4
2019-02-07T02:33:07.575Z,26.4
2019-02-07T02:33:57.757Z,26.3
2019-02-07T02:34:47.476Z,26.1
2019-02-07T02:35:37.371Z,26.1
2019-02-07T02:36:27.614Z,26.1
2019-02-07T02:37:17.355Z,26.1
2019-02-07T02:38:06.598Z,26.1
2019-02-07T02:38:57.686Z,26.2
2019-02-07T02:39:50.027Z,26.3
2019-02-07T02:40:37.877Z,26.4
2019-02-07T02:41:28.225Z,26.4
2019-02-07T02:42:17.712Z,26.4
2019-02-07T02:43:07.275Z,26.5
2019-02-07T02:43:57.820Z,26.6
2019-02-07T02:44:48.720Z,26.8
2019-02-07T02:45:45.239Z,26.8
2019-02-07T02:46:27.183Z,26.9
2019-02-07T02:47:17.530Z,26.9
2019-02-07T02:48:08.724Z,27.1
2019-02-07T02:48:59.935Z,27.1
2019-02-07T02:49:48.502Z,27.2
2019-02-07T02:50:38.073Z,27.3
2019-02-07T02:51:28.358Z,27.3
2019-02-07T02:52:18.462Z,27.3
2019-02-07T02:53:07.945Z,27.3
2019-02-07T02:53:59.070Z,27.2
2019-02-07T02:54:51.081Z,27.1
2019-02-07T02:55:39.284Z,26.9
2019-02-07T02:56:28.722Z,26.8
2019-02-07T02:57:19.157Z,26.8
2019-02-07T02:58:11.246Z,26.6
2019-02-07T02:58:58.159Z,26.5
2019-02-07T02:59:48.701Z,26.4
2019-02-07T03:00:39.114Z,26.3
2019-02-07T03:01:29.066Z,26.3
2019-02-07T03:02:18.571Z,26.1
2019-02-07T03:03:09.506Z,26.1
2019-02-07T03:03:59.975Z,26.1
2019-02-07T03:04:50.042Z,26.1
2019-02-07T03:08:21.589Z,26.3
2019-02-07T03:09:11.623Z,26.4
2019-02-07T03:10:01.881Z,26.4
2019-02-07T03:10:52.916Z,26.5
2019-02-07T03:11:41.666Z,26.6
2019-02-07T03:12:31.724Z,26.7
2019-02-07T03:13:21.359Z,26.8
2019-02-07T03:14:14.318Z,26.8
2019-02-07T03:15:02.105Z,26.9
2019-02-07T03:15:56.698Z,27
2019-02-07T03:16:42.018Z,27
2019-02-07T03:17:32.755Z,26.9
2019-02-07T03:18:21.571Z,26.9
2019-02-07T03:19:12.502Z,26.9
2019-02-07T03:20:05.089Z,26.9
2019-02-07T03:20:51.997Z,26.8
2019-02-07T03:21:42.025Z,26.8
2019-02-07T03:22:32.103Z,26.8
2019-02-07T03:23:24.027Z,26.7
2019-02-07T03:24:13.109Z,26.6
2019-02-07T03:25:03.171Z,26.6
2019-02-07T03:25:52.371Z,26.5
2019-02-07T03:26:42.959Z,26.6
2019-02-07T03:27:32.725Z,26.6
2019-02-07T03:28:23.039Z,26.6
2019-02-07T03:29:15.897Z,26.7
2019-02-07T03:30:03.747Z,26.8
2019-02-07T03:30:53.514Z,26.9
2019-02-07T03:31:43.510Z,26.9
2019-02-07T03:32:34.953Z,27.1
2019-02-07T03:33:22.951Z,27.1
2019-02-07T03:34:12.018Z,27.1
2019-02-07T03:35:04.079Z,27.1
2019-02-07T03:35:53.809Z,27.1
2019-02-07T03:36:43.261Z,27.1
2019-02-07T03:37:33.907Z,27.1
2019-02-07T03:38:26.649Z,27
2019-02-07T03:39:13.788Z,26.9
2019-02-07T03:40:03.391Z,26.8
2019-02-07T03:40:53.619Z,26.7
2019-02-07T03:41:43.216Z,26.6
2019-02-07T03:42:32.956Z,26.4
2019-02-07T03:43:24.098Z,26.3
2019-02-07T03:44:14.158Z,26.3
2019-02-07T03:45:03.342Z,26.2
2019-02-07T03:46:08.053Z,26.1
2019-02-07T03:46:43.047Z,26.1
2019-02-07T03:47:36.916Z,26.1
2019-02-07T03:48:23.951Z,26.1
2019-02-07T03:49:13.726Z,26.1
2019-02-07T03:50:03.645Z,26.2
2019-02-07T03:50:54.677Z,26.3
2019-02-07T03:51:44.621Z,26.3
2019-02-07T03:52:33.880Z,26.4
2019-02-07T03:53:25.151Z,26.4
2019-02-07T03:54:14.541Z,26.6
2019-02-07T03:55:05.465Z,26.6
2019-02-07T03:55:55.055Z,26.7
2019-02-07T03:56:47.781Z,26.8
2019-02-07T03:57:33.957Z,26.9
2019-02-07T03:58:25.382Z,26.9
2019-02-07T03:59:14.880Z,27.1
2019-02-07T04:00:05.759Z,27.1
2019-02-07T04:00:55.270Z,27.1
2019-02-07T04:01:45.689Z,27.2
2019-02-07T04:02:35.949Z,27.2
2019-02-07T04:03:26.062Z,27.2
2019-02-07T04:04:15.494Z,27.1
2019-02-07T04:05:05.940Z,27
2019-02-07T04:05:58.275Z,26.9
2019-02-07T04:06:44.812Z,26.8
2019-02-07T04:07:35.867Z,26.6
2019-02-07T04:08:25.310Z,26.6
2019-02-07T04:09:16.040Z,26.5
2019-02-07T04:10:05.398Z,26.3
2019-02-07T04:10:55.129Z,26.3
2019-02-07T04:11:46.513Z,26.1
2019-02-07T04:12:36.369Z,26.1
2019-02-07T04:13:26.155Z,26
2019-02-07T04:14:15.742Z,26
2019-02-07T04:15:08.141Z,26.1
2019-02-07T04:15:56.014Z,26.1
2019-02-07T04:16:46.788Z,26.1
2019-02-07T04:17:36.514Z,26.2
2019-02-07T04:18:27.105Z,26.3
2019-02-07T04:19:17.123Z,26.3
2019-02-07T04:20:07.347Z,26.4
2019-02-07T04:20:57.041Z,26.5
2019-02-07T04:21:47.013Z,26.6
2019-02-07T04:22:36.321Z,26.7
2019-02-07T04:23:26.873Z,26.8
2019-02-07T04:24:22.767Z,26.8
2019-02-07T04:25:24.371Z,26.9
2019-02-07T04:25:56.768Z,27
2019-02-07T04:26:47.074Z,27.1
2019-02-07T04:27:37.761Z,27.1
2019-02-07T04:28:27.043Z,27.1
2019-02-07T04:29:17.621Z,27.1
2019-02-07T04:30:07.965Z,27.1
2019-02-07T04:30:57.803Z,27.1
2019-02-07T04:31:47.748Z,26.9
2019-02-07T04:32:37.362Z,26.8
2019-02-07T04:33:29.907Z,26.7
2019-02-07T04:34:17.081Z,26.6
2019-02-07T04:35:08.326Z,26.5
2019-02-07T04:35:57.570Z,26.4
2019-02-07T04:36:47.818Z,26.3
2019-02-07T04:37:37.960Z,26.2
2019-02-07T04:38:27.922Z,26.1
2019-02-07T04:39:17.010Z,26
2019-02-07T04:40:11.745Z,26
2019-02-07T04:40:58.104Z,26
2019-02-07T04:41:48.163Z,26
2019-02-07T04:42:41.136Z,26.1
2019-02-07T04:43:28.058Z,26.1
2019-02-07T04:44:18.445Z,26.2
2019-02-07T04:45:08.565Z,26.3
2019-02-07T04:45:59.929Z,26.3
2019-02-07T04:46:48.524Z,26.4
2019-02-07T04:47:37.718Z,26.4
2019-02-07T04:48:28.927Z,26.5
2019-02-07T04:49:18.731Z,26.6
2019-02-07T04:50:08.519Z,26.7
2019-02-07T04:50:58.659Z,26.8
2019-02-07T04:51:51.352Z,26.8
2019-02-07T04:52:38.652Z,26.9
2019-02-07T04:53:28.957Z,27
2019-02-07T04:54:18.181Z,27.1
2019-02-07T04:55:10.691Z,27.1
2019-02-07T04:55:59.396Z,27.1
2019-02-07T04:56:49.495Z,27
2019-02-07T04:57:39.064Z,27
2019-02-07T04:58:29.559Z,26.9
2019-02-07T04:59:18.896Z,26.8
2019-02-07T05:00:12.599Z,26.6
2019-02-07T05:01:01.936Z,26.4
2019-02-07T05:01:49.817Z,26.3
2019-02-07T05:02:39.894Z,26.2
2019-02-07T05:03:30.007Z,26.2
2019-02-07T05:04:20.142Z,26.1
2019-02-07T05:05:09.323Z,26
2019-02-07T05:06:00.146Z,25.9
2019-02-07T05:06:50.046Z,25.8
2019-02-07T05:07:39.711Z,25.8
2019-02-07T05:08:30.413Z,25.9
2019-02-07T05:09:19.228Z,25.9
2019-02-07T05:10:12.986Z,26
2019-02-07T05:10:58.783Z,26.1
2019-02-07T05:11:49.188Z,26.1
2019-02-07T05:12:39.750Z,26.2
2019-02-07T05:13:30.061Z,26.3
2019-02-07T05:14:19.976Z,26.3
2019-02-07T05:15:10.175Z,26.4
2019-02-07T05:16:01.543Z,26.4
2019-02-07T05:16:51.078Z,26.6
2019-02-07T05:17:40.968Z,26.6
2019-02-07T05:18:30.785Z,26.8
2019-02-07T05:19:23.093Z,26.8
2019-02-07T05:20:10.838Z,26.9
2019-02-07T05:20:59.760Z,27
2019-02-07T05:21:50.675Z,27
2019-02-07T05:22:40.443Z,27.1
2019-02-07T05:23:30.497Z,27.1
2019-02-07T05:24:20.815Z,27.1
2019-02-07T05:25:12.807Z,27
2019-02-07T05:26:01.787Z,26.9
2019-02-07T05:26:51.390Z,26.9
2019-02-07T05:27:42.485Z,26.9
2019-02-07T05:28:33.090Z,26.8
2019-02-07T05:29:21.776Z,26.8
2019-02-07T05:30:12.042Z,26.8
2019-02-07T05:31:01.302Z,26.7
2019-02-07T05:31:51.432Z,26.6
2019-02-07T05:32:42.909Z,26.6
2019-02-07T05:33:31.496Z,26.6
2019-02-07T05:34:23.949Z,26.7
2019-02-07T05:35:11.909Z,26.7
2019-02-07T05:36:01.721Z,26.8
2019-02-07T05:36:51.752Z,26.8
2019-02-07T05:37:42.672Z,26.9
2019-02-07T05:38:32.432Z,27
2019-02-07T05:39:21.405Z,27.1
2019-02-07T05:40:11.764Z,27.1
2019-02-07T05:41:02.262Z,27.1
2019-02-07T05:41:52.613Z,27.1
2019-02-07T05:42:41.574Z,27.1
2019-02-07T05:43:34.729Z,27
2019-02-07T05:44:22.313Z,26.9
2019-02-07T05:45:12.579Z,26.7
2019-02-07T05:46:02.335Z,26.6
2019-02-07T05:47:01.443Z,26.4
2019-02-07T05:47:42.528Z,26.4
2019-02-07T05:48:32.923Z,26.3
2019-02-07T05:49:22.542Z,26.2
2019-02-07T05:50:13.153Z,26.1
2019-02-07T05:51:03.288Z,26
2019-02-07T05:51:53.569Z,25.9
2019-02-07T05:52:45.029Z,25.8
2019-02-07T05:53:32.575Z,25.8
2019-02-07T05:54:23.185Z,25.7
2019-02-07T05:55:13.060Z,25.8
2019-02-07T05:56:02.443Z,25.8
2019-02-07T05:56:52.395Z,25.8
2019-02-07T05:57:43.488Z,25.9
2019-02-07T05:58:34.070Z,25.9
2019-02-07T05:59:22.940Z,26
2019-02-07T06:00:13.602Z,26.1
2019-02-07T06:01:03.369Z,26.1
2019-02-07T06:01:56.267Z,26.3
2019-02-07T06:02:44.064Z,26.3
2019-02-07T06:03:32.787Z,26.4
2019-02-07T06:06:20.914Z,26.6
2019-02-07T06:07:10.956Z,26.5
2019-02-07T06:08:01.899Z,26.4
2019-02-07T06:08:53.582Z,26.3
2019-02-07T06:09:42.237Z,26.2
2019-02-07T06:10:31.252Z,26.1
2019-02-07T06:11:22.102Z,25.9
2019-02-07T06:12:13.594Z,25.8
2019-02-07T06:13:01.910Z,25.8
2019-02-07T06:13:52.013Z,25.7
2019-02-07T06:14:42.796Z,25.7
2019-02-07T06:15:32.097Z,25.6
2019-02-07T06:16:21.276Z,25.5
2019-02-07T06:17:11.895Z,25.4
2019-02-07T06:18:03.217Z,25.4
2019-02-07T06:19:09.338Z,25.4
2019-02-07T06:19:42.891Z,25.5
2019-02-07T06:20:32.442Z,25.6
2019-02-07T06:21:25.231Z,25.6
2019-02-07T06:22:12.549Z,25.7
2019-02-07T06:23:02.041Z,25.8
2019-02-07T06:23:52.497Z,25.8
2019-02-07T06:24:42.549Z,25.9
2019-02-07T06:25:32.621Z,26
2019-02-07T06:26:23.169Z,26.1
2019-02-07T06:27:14.204Z,26.1
2019-02-07T06:28:03.561Z,26.3
2019-02-07T06:28:51.930Z,26.3
2019-02-07T06:29:43.936Z,26.4
2019-02-07T06:30:34.486Z,26.4
2019-02-07T06:31:22.661Z,26.4
2019-02-07T06:32:13.494Z,26.3
2019-02-07T06:33:03.563Z,26.1
2019-02-07T06:33:54.265Z,26.1
2019-02-07T06:34:43.795Z,25.9
2019-02-07T06:35:33.496Z,25.8
2019-02-07T06:36:25.498Z,25.8
2019-02-07T06:37:13.883Z,25.6
2019-02-07T06:38:03.960Z,25.6
2019-02-07T06:38:53.991Z,25.5
2019-02-07T06:39:45.611Z,25.4
2019-02-07T06:40:32.858Z,25.4
2019-02-07T06:41:24.210Z,25.3
2019-02-07T06:42:14.343Z,25.3
2019-02-07T06:43:04.059Z,25.3
2019-02-07T06:43:53.561Z,25.3
2019-02-07T06:44:44.198Z,25.4
2019-02-07T06:45:36.099Z,25.4
2019-02-07T06:46:24.562Z,25.4
2019-02-07T06:47:20.129Z,25.4
2019-02-07T06:48:04.287Z,25.6
2019-02-07T06:48:55.202Z,25.6
2019-02-07T06:49:44.547Z,25.6
2019-02-07T06:50:34.660Z,25.7
2019-02-07T06:51:23.979Z,25.8
2019-02-07T06:52:14.662Z,25.9
2019-02-07T06:53:05.311Z,25.8
2019-02-07T06:53:54.837Z,25.8
2019-02-07T06:54:46.442Z,25.6
2019-02-07T06:55:35.554Z,25.4
2019-02-07T06:56:25.484Z,25.4
2019-02-07T06:57:17.897Z,25.3
2019-02-07T06:58:07.637Z,25.2
2019-02-07T06:58:57.354Z,25.1
2019-02-07T07:01:13.340Z,25.1
2019-02-07T07:01:23.774Z,24.9
2019-02-07T07:02:14.458Z,24.9
2019-02-07T07:03:04.030Z,24.8
2019-02-07T07:03:59.657Z,24.8
2019-02-07T07:06:21.363Z,24.6
2019-02-07T07:07:11.550Z,24.7
2019-02-07T07:08:01.205Z,24.8
2019-02-07T07:08:51.572Z,24.8
2019-02-07T07:09:42.102Z,24.9
2019-02-07T07:10:31.084Z,24.9
2019-02-07T07:11:22.034Z,25
2019-02-07T07:12:11.890Z,25.1
2019-02-07T07:13:04.319Z,25.1
2019-02-07T07:13:51.904Z,25.2
2019-02-07T07:14:42.033Z,25.3
2019-02-07T07:15:31.817Z,25.4
2019-02-07T07:16:22.887Z,25.5
2019-02-07T07:17:11.289Z,25.6
2019-02-07T07:18:02.207Z,25.5
2019-02-07T07:18:52.086Z,25.4
2019-02-07T07:19:42.594Z,25.4
2019-02-07T07:20:32.246Z,25.3
2019-02-07T07:21:21.596Z,25.2
2019-02-07T07:22:13.842Z,25.1
2019-02-07T07:23:02.837Z,25
2019-02-07T07:23:52.613Z,24.9
2019-02-07T07:24:42.363Z,24.9
2019-02-07T07:25:35.189Z,24.8
2019-02-07T07:26:22.498Z,24.8
2019-02-07T07:27:12.003Z,24.7
2019-02-07T07:28:02.618Z,24.6
2019-02-07T07:28:53.530Z,24.6
2019-02-07T07:29:43.236Z,24.4
2019-02-07T07:30:33.323Z,24.4
2019-02-07T07:31:24.473Z,24.4
2019-02-07T07:32:13.293Z,24.5
2019-02-07T07:33:02.852Z,24.6
2019-02-07T07:33:52.360Z,24.7
2019-02-07T07:34:42.989Z,24.7
2019-02-07T07:35:32.741Z,24.8
2019-02-07T07:36:23.140Z,24.8
2019-02-07T07:37:12.828Z,24.9
2019-02-07T07:38:03.652Z,25
2019-02-07T07:38:53.427Z,25.1
2019-02-07T07:39:42.937Z,25.2
2019-02-07T07:40:33.827Z,25.3
2019-02-07T07:41:23.893Z,25.4
2019-02-07T07:42:13.955Z,25.6
2019-02-07T07:43:02.627Z,25.5
2019-02-07T07:43:55.245Z,25.4
2019-02-07T07:44:42.740Z,25.3
2019-02-07T07:45:34.187Z,25.2
2019-02-07T07:46:23.389Z,25.1
2019-02-07T07:47:13.217Z,25
2019-02-07T07:48:03.165Z,24.9
2019-02-07T07:48:54.017Z,24.9
2019-02-07T07:49:45.914Z,24.8
2019-02-07T07:50:34.045Z,24.8
2019-02-07T07:51:25.079Z,24.8
2019-02-07T07:52:14.037Z,24.7
2019-02-07T07:53:05.839Z,24.6
2019-02-07T07:53:54.294Z,24.5
2019-02-07T07:54:43.592Z,24.4
2019-02-07T07:55:33.128Z,24.4
2019-02-07T07:56:23.642Z,24.4
2019-02-07T07:57:13.999Z,24.5
2019-02-07T07:58:04.336Z,24.5
2019-02-07T07:58:56.143Z,24.6
2019-02-07T07:59:43.877Z,24.6
2019-02-07T08:00:34.506Z,24.7
2019-02-07T08:01:24.622Z,24.8
2019-02-07T08:02:15.721Z,24.8
2019-02-07T08:03:04.864Z,24.9
2019-02-07T08:03:55.159Z,25
2019-02-07T08:04:45.075Z,25.1
2019-02-07T08:05:35.051Z,25.2
2019-02-07T08:06:24.676Z,25.3
2019-02-07T08:07:14.546Z,25.3
2019-02-07T08:08:07.326Z,25.3
2019-02-07T08:08:55.183Z,25.3
2019-02-07T08:09:46.160Z,25.3
2019-02-07T08:10:35.950Z,25.3
2019-02-07T08:11:27.013Z,25.3
2019-02-07T08:12:14.608Z,25.3
2019-02-07T08:13:05.381Z,25.3
2019-02-07T08:13:55.314Z,25.3
2019-02-07T08:14:45.393Z,25.3
2019-02-07T08:15:35.173Z,25.3
2019-02-07T08:16:26.965Z,25.2
2019-02-07T08:17:18.424Z,25.3
2019-02-07T08:18:06.767Z,25.3
2019-02-07T08:18:55.446Z,25.3
2019-02-07T08:19:46.238Z,25.4
2019-02-07T08:20:40.209Z,25.5
2019-02-07T08:21:27.001Z,25.6
2019-02-07T08:22:16.143Z,25.6
2019-02-07T08:23:06.479Z,25.4
2019-02-07T08:23:56.871Z,25.4
2019-02-07T08:24:45.761Z,25.3
2019-02-07T08:25:36.746Z,25.2
2019-02-07T08:26:28.573Z,25.1
2019-02-07T08:27:16.161Z,25
2019-02-07T08:28:07.333Z,24.9
2019-02-07T08:28:55.791Z,24.9
2019-02-07T08:29:49.048Z,24.8
2019-02-07T08:30:43.596Z,24.8
2019-02-07T08:31:26.826Z,24.7
2019-02-07T08:32:16.342Z,24.6
2019-02-07T08:33:07.455Z,24.6
2019-02-07T08:33:57.555Z,24.5
2019-02-07T08:34:46.307Z,24.4
2019-02-07T08:35:39.123Z,24.5
2019-02-07T08:36:26.891Z,24.6
2019-02-07T08:37:17.900Z,24.6
2019-02-07T08:38:07.608Z,24.7
2019-02-07T08:38:57.689Z,24.8
2019-02-07T08:39:47.138Z,24.9
2019-02-07T08:40:38.100Z,24.9
2019-02-07T08:41:28.095Z,25
2019-02-07T08:42:17.035Z,25.1
2019-02-07T08:43:08.199Z,25.2
2019-02-07T08:43:57.992Z,25.3
2019-02-07T08:44:49.840Z,25.4
2019-02-07T08:45:38.149Z,25.6
2019-02-07T08:46:27.860Z,25.6
2019-02-07T08:47:17.770Z,25.5
2019-02-07T08:48:14.048Z,25.4
2019-02-07T08:49:01.657Z,25.3
2019-02-07T08:49:48.762Z,25.2
2019-02-07T08:50:38.292Z,25.1
2019-02-07T08:51:27.397Z,25
2019-02-07T08:52:18.627Z,24.9
2019-02-07T08:53:08.192Z,24.9
2019-02-07T08:53:59.956Z,24.8
2019-02-07T08:54:48.467Z,24.8
2019-02-07T08:55:41.692Z,24.8
2019-02-07T08:56:28.414Z,24.7
2019-02-07T08:57:21.036Z,24.6
2019-02-07T08:58:08.681Z,24.5
2019-02-07T08:58:58.772Z,24.4
2019-02-07T08:59:49.001Z,24.4
2019-02-07T09:00:38.904Z,24.5
2019-02-07T09:01:28.748Z,24.5
2019-02-07T09:02:18.743Z,24.6
2019-02-07T09:03:11.544Z,24.6
2019-02-07T09:03:58.916Z,24.7
2019-02-07T09:04:48.944Z,24.8
2019-02-07T09:05:38.943Z,24.8
2019-02-07T09:06:30.191Z,24.9
2019-02-07T09:07:19.388Z,24.9
2019-02-07T09:08:09.869Z,25.1
2019-02-07T09:08:59.836Z,25.2
2019-02-07T09:09:50.291Z,25.3
2019-02-07T09:10:39.006Z,25.4
2019-02-07T09:11:30.730Z,25.4
2019-02-07T09:12:21.625Z,25.3
2019-02-07T09:13:10.001Z,25.2
2019-02-07T09:14:01.410Z,25.1
2019-02-07T09:14:50.051Z,25
2019-02-07T09:15:44.081Z,24.9
2019-02-07T09:16:30.235Z,24.9
2019-02-07T09:17:21.921Z,24.8
2019-02-07T09:18:20.182Z,24.8
2019-02-07T09:19:00.608Z,24.7
2019-02-07T09:19:50.130Z,24.7
2019-02-07T09:20:40.565Z,24.6
2019-02-07T09:21:32.413Z,24.6
2019-02-07T09:22:24.385Z,24.5
2019-02-07T09:23:11.480Z,24.4
2019-02-07T09:24:00.415Z,24.4
2019-02-07T09:24:53.405Z,24.3
2019-02-07T09:25:41.362Z,24.4
2019-02-07T09:26:30.892Z,24.4
2019-02-07T09:27:20.790Z,24.5
2019-02-07T09:28:10.250Z,24.6
2019-02-07T09:29:01.325Z,24.6
2019-02-07T09:29:50.865Z,24.7
2019-02-07T09:30:42.737Z,24.8
2019-02-07T09:31:31.085Z,24.8
2019-02-07T09:32:21.339Z,24.9
2019-02-07T09:33:11.589Z,25.1
2019-02-07T09:34:03.489Z,25.2
2019-02-07T09:34:51.825Z,25.3
2019-02-07T09:35:41.617Z,25.4
2019-02-07T09:36:31.624Z,25.4
2019-02-07T09:37:22.464Z,25.3
2019-02-07T09:38:11.826Z,25.2
2019-02-07T09:39:02.049Z,25.1
2019-02-07T09:39:53.127Z,25
2019-02-07T09:40:41.394Z,24.9
2019-02-07T09:41:31.676Z,24.9
2019-02-07T09:42:21.431Z,24.8
2019-02-07T09:43:14.761Z,24.8
2019-02-07T09:44:02.684Z,24.7
2019-02-07T09:44:52.346Z,24.7
2019-02-07T09:45:42.528Z,24.6
2019-02-07T09:46:32.036Z,24.6
2019-02-07T09:47:22.363Z,24.5
2019-02-07T09:48:23.516Z,24.4
2019-02-07T09:49:04.583Z,24.4
2019-02-07T09:49:52.861Z,24.5
2019-02-07T09:50:42.558Z,24.5
2019-02-07T09:51:32.516Z,24.6
2019-02-07T09:52:24.241Z,24.6
2019-02-07T09:53:24.850Z,24.7
2019-02-07T09:54:03.785Z,24.8
2019-02-07T09:54:53.223Z,24.8
2019-02-07T09:55:43.585Z,24.9
2019-02-07T09:56:33.568Z,25
2019-02-07T09:57:23.648Z,25.1
2019-02-07T09:58:16.108Z,25.3
2019-02-07T09:59:06.171Z,25.4
2019-02-07T09:59:52.982Z,25.5
2019-02-07T10:00:43.835Z,25.6
2019-02-07T10:01:34.005Z,25.5
2019-02-07T10:02:23.442Z,25.4
2019-02-07T10:03:13.245Z,25.3
2019-02-07T10:04:04.634Z,25.3
2019-02-07T10:04:53.631Z,25.1
2019-02-07T10:07:23.892Z,24.9
2019-02-07T10:08:11.022Z,24.9
2019-02-07T10:09:01.138Z,24.9
2019-02-07T10:09:51.229Z,24.8
2019-02-07T10:10:41.719Z,24.7
2019-02-07T10:11:31.739Z,24.6
2019-02-07T10:12:21.020Z,24.6
2019-02-07T10:13:12.732Z,24.4
2019-02-07T10:14:01.731Z,24.5
2019-02-07T10:14:51.281Z,24.6
2019-02-07T10:15:42.216Z,24.6
2019-02-07T10:16:35.474Z,24.6
2019-02-07T10:17:20.577Z,24.7
2019-02-07T10:18:11.863Z,24.8
2019-02-07T10:19:02.084Z,24.9
2019-02-07T10:19:52.674Z,24.9
2019-02-07T10:20:44.679Z,25
2019-02-07T10:21:31.439Z,25.1
2019-02-07T10:22:23.727Z,25.1
2019-02-07T10:23:11.262Z,25.1
2019-02-07T10:24:02.659Z,25.1
2019-02-07T10:24:52.496Z,25.1
2019-02-07T10:25:45.318Z,24.9
2019-02-07T10:26:32.813Z,24.9
2019-02-07T10:27:22.656Z,24.8
2019-02-07T10:28:12.741Z,24.7
2019-02-07T10:29:02.116Z,24.6
2019-02-07T10:29:52.236Z,24.6
2019-02-07T10:30:41.898Z,24.4
2019-02-07T10:31:34.738Z,24.4
2019-02-07T10:32:22.806Z,24.4
2019-02-07T10:33:12.598Z,24.3
2019-02-07T10:34:03.748Z,24.3
2019-02-07T10:34:55.583Z,24.2
2019-02-07T10:35:43.228Z,24.1
2019-02-07T10:36:33.518Z,24.1
2019-02-07T10:37:23.945Z,24.1
2019-02-07T10:38:12.607Z,24
2019-02-07T10:39:03.730Z,24
2019-02-07T10:39:54.090Z,23.9
2019-02-07T10:40:45.014Z,23.9
2019-02-07T10:41:36.857Z,23.9
2019-02-07T10:42:23.480Z,23.8
2019-02-07T10:43:13.735Z,23.8
2019-02-07T10:44:05.460Z,23.8
2019-02-07T10:44:53.375Z,23.8
2019-02-07T10:45:44.314Z,23.8
2019-02-07T10:46:34.292Z,23.7
2019-02-07T10:47:23.582Z,23.7
2019-02-07T10:48:14.718Z,23.6
2019-02-07T10:49:04.265Z,23.6
2019-02-07T10:50:06.695Z,23.6
2019-02-07T10:50:44.691Z,23.6
2019-02-07T10:51:34.179Z,23.5
2019-02-07T10:52:23.042Z,23.5
2019-02-07T10:53:16.722Z,23.5
2019-02-07T10:54:04.562Z,23.4
2019-02-07T10:54:54.879Z,23.4
2019-02-07T10:55:43.655Z,23.4
2019-02-07T10:56:34.454Z,23.3
2019-02-07T10:57:24.644Z,23.4
2019-02-07T10:58:15.119Z,23.3
2019-02-07T10:59:06.706Z,23.3
2019-02-07T10:59:55.519Z,23.3
2019-02-07T11:00:45.007Z,23.3
2019-02-07T11:01:35.644Z,23.3
2019-02-07T11:02:26.667Z,23.2
2019-02-07T11:03:14.629Z,23.1
2019-02-07T11:04:05.885Z,23.1
2019-02-07T11:04:55.308Z,23.1
2019-02-07T11:05:45.136Z,23.1
2019-02-07T11:06:35.178Z,23.1
2019-02-07T11:07:25.581Z,23.1
2019-02-07T11:08:16.711Z,23
2019-02-07T11:09:05.699Z,23
2019-02-07T11:09:55.663Z,23
2019-02-07T11:10:44.785Z,22.9
2019-02-07T11:11:37.575Z,22.9
2019-02-07T11:12:25.290Z,22.9
2019-02-07T11:13:16.180Z,22.9
2019-02-07T11:14:05.703Z,22.9
2019-02-07T11:14:55.533Z,22.9
2019-02-07T11:15:45.446Z,22.8
2019-02-07T11:16:35.893Z,22.8
2019-02-07T11:17:28.060Z,22.8